Create Custom Reports and Graphics: Custom Report

North/Central Map

Map

15 Minute Data

South County Map

Map

15 Minute Data

Northern Sonoma County Latest

25 Stations

15 Minute Data | America/Los_Angeles
as of 5/5/26 9:58 PM PDT
Station Date Time Temp (°F) RH (%) Dew Pt (°F) Wind Spd (mph) Wind Dir (°) Wind Gust (mph) Latest Rain (In) Daily Rain (In) Daily Max Temp (°F) Daily Min Temp (°F)
Bavarian Lion EFW 5/5/26 2145 56.7   3.2 - - - - - 0.00 0.01 65.6   1.9 52.1   5.2
Rockpile Lower (Cooley) 5/5/26 2130 54.4   3.1 82   6 49.0   1.1 2.6   6.0 WNW | 302 7.0   6.1 0.00 0.00 66.4   4.0 48.6   0.1
Rockpile Upper (Cooley) 5/5/26 2145 50.6   2.9 90   9 47.8   0.4 7.3   4.0 NW | 325 11.0   8.6 0.00 0.00 63.7   3.6 45.0   0.4
Lower Dry Creek Valley 5/5/26 2130 59.2   4.7 74   26 50.9   3.5 4.6   3.1 SE | 140 9.6   4.7 0.00 0.01 70.3   1.1 51.7   3.2
Geyserville-South (Nervo Station) 5/5/26 2145 58.0   4.4 - - 3.2   1.8 S | 170 5.8   1.3 0.00 0.00 69.2   0.6 50.5   0.4
Franz Valley (Stornetta) 5/5/26 2145 55.8   3.0 79   15 49.4   1.8 2.8   1.9 SE | 124 5.6   3.1 0.00 0.05 63.7   1.9 51.4   5.6
Geyserville (Ranch 3) 5/5/26 2145 59.6   4.6 74   26 51.2   3.8 4.6   3.0 SE | 128 10.2   6.6 0.00 0.00 68.9   1.2 52.1   0.5
Geyserville-North (Hoffman) 5/5/26 2145 59.9   4.4 74   20 51.7   2.2 5.6   3.4 SE | 128 10.9   7.5 0.00 0.00 71.4   3.7 51.1   0.2
Knights Valley (Bavarian Lion) 5/5/26 2145 56.2   3.4 78   16 49.4   1.7 2.8   2.3 SSE | 154 4.8   2.5 0.00 0.01 64.8   2.3 51.3   4.5
HWY 128/Chalk Hill Rd (Landslide) 5/5/26 2100 59.0   5.1 74   21 50.7   1.8 3.0   2.1 S | 173 6.9   4.3 0.00 0.02 67.2   1.0 52.4   1.9
Newman Knights Valley 5/5/26 2145 57.4   3.3 78   8 50.6   0.5 2.2   0.8 ESE | 108 3.8   0.7 0.00 0.01 64.7   0.9 52.6   2.0
Jimtown-North (Piccolo Ranch 15) 5/5/26 2145 58.0   4.1 73   27 49.2   4.7 1.0   0.4 S | 173 4.6   2.4 0.00 0.00 71.9   5.0 52.1   1.1
Peterson (Ranch 09) 5/5/26 2145 57.9   4.4 74   20 49.7   2.2 3.5   0.3 ESE | 111 5.8   2.1 0.00 0.00 68.3   0.9 51.7   1.9
Cloverdale-SE (Ranch 38) 5/5/26 2145 58.2   4.3 80   16 52.0   0.6 3.5   1.3 SSE | 154 5.8   0.8 0.00 0.00 69.4   5.4 50.2   0.6
Geyserville-East (Ranch 40) 5/5/26 2130 56.6   4.5 83   17 51.5   0.5 9.7   3.7 SSE | 152 15.2   6.5 0.00 0.00 69.8   2.9 49.9   0.7
N Chalk Hill Rd (Ranch 63) 5/5/26 2145 57.0   6.3 77   23 49.8   0.8 3.4   0.9 SE | 142 6.2   0.6 0.00 0.00 66.6   1.2 49.0   0.1
Cloverdale-East (Ranch 83) 5/5/26 2145 60.4   5.1 - - 1.1   0.8 SSE | 160 3.8   2.3 0.00 0.00 71.5   5.6 49.3   1.6
Crazy Creek Ranch 5/5/26 2145 58.3   4.3 80   17 52.2   1.0 2.4   1.2 SSE | 158 5.6   2.2 0.00 0.00 68.4   1.6 52.0   0.5
Lytton East (Hill 5) 5/5/26 2145 57.2   4.1 77   20 49.9   2.2 4.6   1.2 SSE | 149 9.1   0.7 0.00 0.01 68.7   1.4 50.6   1.4
Lytton East (Shop Hill Bottom) 5/5/26 2145 57.4   4.2 76   20 49.8   2.2 4.0   0.2 SE | 137 7.1   0.3 0.00 0.00 69.1   2.0 51.0   2.6
Lytton West Hill (23PS) 5/5/26 2145 58.1   4.5 76   24 50.5   2.9 3.2   0.6 SE | 124 6.4   3.2 0.00 0.00 70.1   2.9 51.7   2.6
Lytton West Lower (Lew 6) 5/5/26 2145 57.9   4.5 75   25 50.1   3.3 3.7   0.3 SE | 137 7.0   1.4 0.00 0.01 70.1   3.2 51.3   3.8
Whitton Ranch (201e) 5/5/26 2145 58.2   4.2 76   21 50.9   2.4 2.8   0.5 SSE | 158 4.9   0.4 0.00 0.00 69.2   1.1 51.2   1.4
Upper Dry Creek Valley 5/5/26 2145 60.0   5.0 72   21 51.0   2.0 2.2   1.4 SSW | 212 3.9   1.4 0.00 0.01 71.7   3.9 51.3   3.1
Big River 5/5/26 2145 57.2   4.0 81   18 51.5   1.4 0.8   3.8 ESE | 105 3.0   6.9 0.00 0.01 66.3   1.0 52.0   3.1
Max     60.4 90 52.2 9.7 - 15.2 0.00 0.05 71.9 52.6
Avg     57.6 77 50.4 3.5 - 6.8 0.00 - - -
Min     50.6 72 47.8 0.8 - 3.0 0.00 0.00 63.7 45.0

Central Sonoma County Latest

37 Stations

15 Minute Data | America/Los_Angeles
as of 5/5/26 9:58 PM PDT
Station Date Time Temp (°F) RH (%) Dew Pt (°F) Wind Spd (mph) Wind Dir (°) Wind Gust (mph) Latest Rain (In) Daily Rain (In) Daily Max Temp (°F) Daily Min Temp (°F)
Windsor-NW (Ranch 8) 5/5/26 2145 56.8   3.6 83   2 51.7   2.8 0.3   1.4 SSE | 152 4.2   0.4 0.00 0.01 68.0   0.3 52.0   3.4
Windsor-East (Ranch 16) 5/5/26 2145 56.1   2.8 84   10 51.4   0.4 4.7   0.8 SE | 136 8.7   0.4 0.00 0.03 66.7   0.6 52.1   5.5
Mark West-North (Ranch 14) 5/5/26 2145 56.2   3.2 83   13 51.2   0.8 2.7   0.8 ESE | 118 6.4   0.8 0.00 0.05 66.7   2.7 52.0   4.2
Windsor-SE (Silk Rd) 5/5/26 2145 56.8   3.5 82   15 51.6   1.2 2.8   1.5 ESE | 107 5.3   1.1 0.00 0.01 67.2   1.1 52.4   6.4
Fulton-NW (Ranch 5) 5/5/26 2145 56.1   3.0 85   11 51.8   0.2 3.2   0.5 ESE | 115 6.4   0.7 0.00 0.05 66.7   1.5 52.1   5.5
Bisordi (Fulton) 5/5/26 2145 56.1   2.6 86   8 52.1   0.2 2.9   1.4 SE | 124 5.5   1.5 0.00 0.04 65.7   0.5 52.4   6.0
Windsor-South (Laughlin Rd) 5/4/26 1515 70.3 46 48.5 - - - 0.00 - 71.4 51.0
Fulton-SE (Barnes Rd) 5/5/26 2145 56.2   2.7 84   9 51.6   0.1 3.8   1.0 ESE | 122 6.9   1.2 0.00 0.08 65.9   0.7 52.2   5.5
Fulton-SW (Ranch 21) 5/5/26 2130 55.8   2.8 85   0 51.3   14.4 4.9   1.0 SSE | 167 7.8   0.7 0.00 0.04 65.7   1.0 52.1   4.7
NW Santa Rosa (Piner Road) 5/5/26 2145 55.8   3.0 98   2 55.2   2.3 1.2   0.7 SSE | 166 3.0   2.7 0.00 0.00 65.5   0.2 52.1   5.4
River Rd South (Denner Ranch) 5/5/26 2145 55.3   2.6 100   99 55.2   121.4 4.4   1.0 SE | 143 7.5   0.4 - - 67.1   0.0 51.5   6.5
West Santa Rosa (LOV Vineyard) 5/5/26 2145 55.6   2.7 85   10 51.2   0.5 2.8   0.1 SSW | 193 5.4   0.7 0.00 0.04 65.9   0.5 52.2   5.8
Guerneville Rd (Prokopakis) 5/5/26 2145 56.9   3.2 84   12 52.2   0.6 - - - 0.00 0.05 69.8   1.0 52.7   6.0
SunnyView Vineyard (SCWC) 5/5/26 2145 55.3   2.8 85   10 50.9   0.3 1.1   0.6 SE | 136 3.6   0.8 0.00 0.06 66.6   0.4 51.9   7.9
Guerneville Rd West (Balletto) 5/5/26 2145 55.4   2.2 90   8 52.4   0.2 2.6   0.3 S | 185 5.6   0.3 0.00 0.04 66.1   0.7 52.4   7.2
Sanchietti Ranch 5/5/26 2145 56.0   1.8 89   6 52.8   0.1 2.0   0.4 S | 171 3.7   1.1 0.00 0.07 66.7   0.8 53.2   6.0
Occidental Rd (Sebastopol) 5/5/26 2145 54.0   1.2 100   0 54.1   1.2 0.4   0.3 SE | 124 2.0   0.4 0.00 0.04 66.3   0.2 52.0   7.8
Harper's Rest (Windsor-West) 5/5/26 2145 56.6   4.6 78   17 49.9   0.7 0.6   0.1 E | 97 2.2   0.3 0.00 0.03 67.4   0.9 50.7   5.9
Lower Westside Rd (Ranch 12) 5/5/26 2145 58.0   4.6 78   17 51.2   0.8 1.3   1.1 SE | 142 4.1   2.4 0.00 0.02 68.5   1.1 51.6   5.8
Guerneville (Laughlin Rd) 5/5/26 2145 56.2   3.0 83   12 51.1   0.8 2.8   2.8 SSE | 148 5.7   5.1 0.00 0.01 66.1   0.0 50.8   3.9
Korbel (Winery) 5/5/26 2145 57.9   4.1 81   14 52.1   0.4 0.0   0.0 N | 0 0.0   0.0 0.00 0.00 65.6   0.3 51.4   3.1
Forestville (Shone Farms) 5/5/26 2145 57.4   4.0 79   15 51.0   0.8 1.3   0.2 SSE | 151 4.3   1.1 0.00 0.01 67.2   0.0 51.1   5.4
Forestville-NE (Ranch 30) 5/5/26 2145 56.6   4.0 84   13 51.8   0.0 4.0   2.1 S | 191 7.5   3.8 0.00 0.02 69.3   1.9 51.2   6.6
Foggy Bend (Ranch 41) 5/5/26 2145 58.3   4.3 79   15 51.9   0.4 3.8   2.6 SSW | 192 6.4   3.7 0.00 0.02 67.0   0.5 52.6   6.6
Last Stop 5/5/26 2145 56.5   3.5 81   14 50.7   0.8 3.0   1.4 SW | 218 5.8   2.3 0.00 0.02 65.5   1.8 52.0   8.8
Green Valley Vineyard 5/5/26 2145 54.0   1.8 86   10 49.9   1.1 2.9   2.1 WSW | 255 5.7   3.3 0.00 0.03 65.6   0.8 51.0   6.7
Park Royal 5/5/26 2145 55.4   2.8 88   11 51.8   0.5 - - - 0.00 0.06 65.8   0.3 51.8   6.1
Merino 5/5/26 2145 55.3   2.3 90   8 52.6   0.0 1.7   1.4 SSE | 162 4.5   1.2 0.00 0.06 65.9   0.8 52.1   7.1
Green Valley (Sanchietti) 5/5/26 2145 55.2   1.5 - - - - - - - 68.4   0.0 52.4   9.2
Keefer Ranch (Green Valley) 5/5/26 2145 54.3   1.1 87   8 50.4   1.2 - - - 0.00 0.03 66.0   0.3 52.2   8.5
Graton-West (Dutton Ranch) 5/5/26 2145 54.1   0.9 100   0 54.2   0.9 2.0   1.0 S | 185 3.9   0.6 0.00 0.04 67.9   0.5 52.2   7.9
Graton-South (Mill Station Rd) 5/5/26 2145 53.7   1.0 92   4 51.4   0.3 1.6   1.6 SW | 231 4.3   4.3 0.00 0.04 64.9   1.1 51.7   9.2
Occidental (Horseshoe Bend) 5/5/26 2145 50.9   0.1 95   1 49.6   0.3 - - - 0.00 0.04 63.8   0.5 50.3   3.9
Sexton Valley (Jacqueline's Blk) 5/5/26 2145 54.2   1.3 92   4 52.0   0.0 1.7   1.1 WSW | 239 6.1   3.9 0.00 0.04 66.1   2.5 52.2   8.4
Sebastopol Hills (Burnside Rd) 5/5/26 2145 52.6   0.9 97   1 51.9   0.6 5.0   2.2 SSW | 208 8.6   3.2 0.01 0.16 63.5   2.4 51.0   3.2
Pleasant Hill 5/5/26 2145 53.4   1.5 90   6 50.5   0.1 3.0   2.1 SW | 226 6.0   3.4 0.00 0.06 65.7   1.6 51.0   6.3
Seaview/Fort Ross (Hirsch) 5/5/26 2145 50.5   3.2 94   3 48.8   2.3 0.4   1.8 NW | 309 1.8   3.2 0.00 0.00 55.3   2.4 46.6   0.4
Max     58.3 100 55.2 5.0 - 8.7 0.01 0.16 69.8 53.2
Avg     55.4 87 51.7 2.4 - 5.1 0.00 - - -
Min     50.5 78 48.8 0.0 - 0.0 0.00 0.00 55.3 46.6

Southern Sonoma County Latest

20 Stations

15 Minute Data
as of 5/5/26 9:58 PM PDT
Station Date Time Temp (°F) RH (%) Dew Pt (°F) Wind Spd (mph) Wind Dir (°) Wind Gust (mph) Latest Rain (In) Daily Rain (In) Daily Min Temp (°F) Daily Max Temp (°F)
Upper Rincon Valley 5/5/26 2145 52.3   2.3 90   7 49.6   0.3 1.4   0.0 SSE | 148 3.1   1.9 0.00 0.00 49.1   3.6 60.1   1.7
Lower Bennett Valley 5/5/26 2145 54.1   2.6 90   10 51.4   0.2 4.6   2.5 ESE | 116 9.0   3.8 0.00 0.01 50.9   10.7 63.6   0.9
Kenwood (Wildwood) 5/5/26 2145 54.9   3.0 84   12 50.3   0.4 4.3   3.4 N | 9 7.7   6.0 0.00 0.01 51.6   7.6 63.7   1.3
Crane Creek (Ranch 62) 5/5/26 2145 54.8   2.5 88   9 51.5   0.1 1.4   1.4 S | 181 2.7   2.5 0.00 0.01 51.8   6.3 65.4   0.7
Rohnert Park-West (Stony Point) 5/5/26 2145 54.9   1.8 92   4 52.5   0.5 5.2   2.5 SSW | 199 9.2   3.9 0.00 0.00 52.3   9.1 64.9   0.4
Rice-Spivak Vineyard 5/5/26 2145 54.2   1.6 - - - - - - - 51.8   10.5 68.2   1.9
Cartograph Wines Base 5/5/26 2145 53.7   1.5 94   3 52.2   0.7 6.2   1.6 SSW | 200 12.2   4.5 0.00 0.02 51.6   4.1 64.0   2.0
Cartograph Wines Remote 5/5/26 2145 54.3   1.6 - - - - - - - 51.8   5.5 65.1   0.3
Penngrove (Asellus) 5/5/26 2145 55.0   2.7 86   9 51.0   0.2 1.0   0.3 S | 184 2.5   0.1 0.00 0.01 51.6   10.2 63.9   2.8
Sonoma Valley (Bedrock) 5/5/26 2145 56.0   4.7 74   20 47.7   1.8 - - - 0.00 0.02 50.5   7.5 67.7   3.3
Sonoma-West (Arnold) 5/5/26 2145 56.8   3.9 76   17 49.4   1.7 2.4   1.0 WSW | 240 5.8   0.1 0.00 0.00 52.3   10.2 66.1   0.1
Sonoma Valley HS 5/5/26 2145 56.9   4.1 82   18 51.5   1.3 2.4   1.4 SW | 226 4.3   1.6 0.00 0.01 52.0   8.5 65.3   0.5
Sonoma East (Bundschu01) 5/5/26 2145 57.0   3.8 76   17 49.4   1.6 3.2   2.0 WSW | 255 6.6   3.9 0.00 0.03 52.3   12.0 65.9   0.1
Sonoma-SE (Napoli) 5/5/26 2145 56.9   3.5 76   16 49.5   1.7 4.8   4.7 W | 269 11.1   7.7 0.00 0.02 52.2   10.1 66.7   0.0
Schellville (Sasaki) 2/7/26 1900 53.4   2.2 88   10 49.9   1.0 3.3   1.8 SW | 225 5.8   4.0 0.00 0.00 47.0   0.8 62.8   8.4
Petaluma (Ranch 10) 5/5/26 2145 56.1   3.3 83   12 51.1   0.2 2.7   0.2 WNW | 288 5.7   0.7 0.00 0.02 52.4   11.5 68.0   0.4
Carneros (Ranch 71) 5/5/26 2145 55.2   3.0 82   14 49.8   1.1 8.2   5.1 W | 275 12.5   7.3 0.00 0.03 51.4   4.3 64.8   0.1
Ricci Vineyards (Carneros) 5/5/26 2145 55.7   3.2 82   12 50.5   0.5 7.5   4.5 WNW | 298 12.2   7.0 0.00 0.04 52.1   10.1 66.3   0.4
Carneros Upper (Ranch 81) 5/5/26 2145 55.1   3.0 81   81 49.6   103.5 10.8   7.6 W | 263 16.0   11.0 - - 51.4   4.6 65.2   0.7
Carneros Lower (Ranch 81) 5/5/26 2145 56.0   3.1 82   13 50.5   1.0 1.0   1.0 WNW | 289 6.7   6.7 0.00 0.04 52.0   9.4 68.4   0.1
Max     57.0 94 52.5 10.8 - 16.0 0.00 0.04 52.4 68.4
Avg     55.3 84 50.4 4.2 - 8.0 0.00 - - -
Min     52.3 74 47.7 1.0 - 2.5 0.00 0.00 49.1 60.1

AQI Map

Map

Hourly Data